createdAt,value
2017-09-29T14:48:08.212Z,68.18
2017-09-29T15:26:25.508Z,71.95
2017-09-29T15:28:52.673Z,72.09
2017-09-29T15:31:20.130Z,72.04
2017-09-29T15:33:47.286Z,72.20
2017-09-29T15:36:14.424Z,72.25
2017-09-29T15:38:41.579Z,72.24
2017-09-29T15:41:08.731Z,72.32
2017-09-29T15:43:35.916Z,72.39
2017-09-29T15:46:03.069Z,72.45
2017-09-29T15:48:30.223Z,72.55
2017-09-29T15:50:57.375Z,72.60
2017-09-29T15:53:24.509Z,72.70
2017-09-29T15:55:51.645Z,72.74
2017-09-29T15:58:18.809Z,72.83
2017-09-29T16:00:45.954Z,72.85
2017-09-29T16:03:13.113Z,72.93
2017-09-29T16:05:40.268Z,72.93
2017-09-29T16:08:07.419Z,73.38
2017-09-29T16:10:34.557Z,73.26
2017-09-29T16:13:01.693Z,73.14
2017-09-29T16:15:28.844Z,73.53
2017-09-29T16:17:55.981Z,73.66
2017-09-29T16:20:23.122Z,73.75
2017-09-29T16:22:50.276Z,73.68
2017-09-29T16:25:18.873Z,73.58
2017-09-29T16:27:46.023Z,73.81
2017-09-29T16:30:13.486Z,73.87
2017-09-29T16:32:41.411Z,74.03
2017-09-29T16:35:08.559Z,74.18
2017-09-29T16:37:35.698Z,74.19
2017-09-29T16:40:02.866Z,74.30
2017-09-29T16:42:30.010Z,74.42
2017-09-29T16:44:57.172Z,74.42
2017-09-29T16:47:24.308Z,74.46
2017-09-29T16:49:51.459Z,74.57
2017-09-29T16:52:18.612Z,74.53
2017-09-29T16:54:45.750Z,74.03
2017-09-29T16:57:12.893Z,73.14
2017-09-29T16:59:40.038Z,72.63
2017-09-29T17:02:07.182Z,72.00
2017-09-29T17:04:34.322Z,71.61
2017-09-29T17:07:01.473Z,71.19
2017-09-29T17:09:30.199Z,70.75
2017-09-29T17:11:58.173Z,70.35
2017-09-29T17:14:25.516Z,70.05
2017-09-29T17:16:52.664Z,69.78
2017-09-29T17:19:20.220Z,69.69
2017-09-29T17:21:47.412Z,69.44
2017-09-29T17:24:14.572Z,69.27
2017-09-29T17:26:41.735Z,69.17
2017-09-29T17:29:08.912Z,68.99
2017-09-29T17:31:36.551Z,68.89
2017-09-29T17:34:03.690Z,68.61
2017-09-29T17:36:30.830Z,68.35
2017-09-29T17:38:58.005Z,68.40
2017-09-29T17:41:25.170Z,68.13
2017-09-29T17:43:52.337Z,68.36
2017-09-29T17:46:19.489Z,69.42
2017-09-29T17:48:46.644Z,69.64
2017-09-29T17:51:13.805Z,69.45
2017-09-29T17:53:40.964Z,69.05
2017-09-29T17:56:08.108Z,68.82
2017-09-29T17:58:35.249Z,68.34
2017-09-29T18:01:02.394Z,68.02
2017-09-29T18:03:29.730Z,67.84
2017-09-29T18:05:56.883Z,67.25
2017-09-29T18:08:24.030Z,67.38
2017-09-29T18:10:51.172Z,68.23
2017-09-29T18:13:19.085Z,68.80
2017-09-29T18:15:46.233Z,68.90
2017-09-29T18:18:13.400Z,69.09
2017-09-29T18:20:40.538Z,69.26
2017-09-29T18:23:07.678Z,69.42
2017-09-29T18:25:34.818Z,69.54
2017-09-29T18:28:01.966Z,69.74
2017-09-29T18:30:29.105Z,69.86
2017-09-29T18:32:56.265Z,69.96
2017-09-29T18:35:23.419Z,69.97
2017-09-29T18:37:50.584Z,70.12
2017-09-29T18:40:23.601Z,70.11
2017-09-29T18:42:50.759Z,70.22
2017-09-29T18:45:23.443Z,70.71
2017-09-29T18:47:50.595Z,70.74
2017-09-29T18:50:17.745Z,70.91
2017-09-29T18:52:44.886Z,70.96
2017-09-29T18:55:12.184Z,70.99
2017-09-29T18:57:39.386Z,71.01
2017-09-29T19:00:06.548Z,71.00
2017-09-29T19:02:33.808Z,71.01
2017-09-29T19:05:00.976Z,71.03
2017-09-29T19:07:28.135Z,71.10
2017-09-29T19:09:55.578Z,71.13
2017-09-29T19:12:22.920Z,71.19
2017-09-29T19:14:50.413Z,71.27
2017-09-29T19:17:17.591Z,71.34
2017-09-29T19:19:44.751Z,71.42
2017-09-29T19:22:11.902Z,71.45
2017-09-29T19:24:39.156Z,71.49
2017-09-29T19:27:06.361Z,71.54
2017-09-29T19:29:33.800Z,71.57
2017-09-29T19:32:00.992Z,71.60
2017-09-29T19:34:28.422Z,71.61
2017-09-29T19:36:55.573Z,71.64
2017-09-29T19:39:23.045Z,71.67
2017-09-29T19:41:50.505Z,71.74
2017-09-29T19:44:17.945Z,71.82
2017-09-29T19:46:45.129Z,71.86
2017-09-29T19:49:12.289Z,71.90
2017-09-29T19:51:39.945Z,71.94
2017-09-29T19:54:07.452Z,71.99
2017-09-29T19:56:35.372Z,72.03
2017-09-29T19:59:02.509Z,72.09
2017-09-29T20:01:29.842Z,72.11
2017-09-29T20:03:56.987Z,72.14
2017-09-29T20:06:24.144Z,72.14
2017-09-29T20:08:51.296Z,72.19
2017-09-29T20:11:18.451Z,72.21
2017-09-29T20:13:45.607Z,72.23
2017-09-29T20:16:12.755Z,72.24
2017-09-29T20:18:39.908Z,72.24
2017-09-29T20:21:07.050Z,72.24
2017-09-29T20:23:34.204Z,72.23
2017-09-29T20:26:01.360Z,72.24
2017-09-29T20:28:28.497Z,72.24
2017-09-29T20:30:55.642Z,72.25
2017-09-29T20:33:22.794Z,72.25
2017-09-29T20:35:49.952Z,72.25
2017-09-29T20:38:17.382Z,72.29
2017-09-29T20:40:44.548Z,72.29
2017-09-29T20:43:11.691Z,72.29
2017-09-29T20:45:38.861Z,72.27
2017-09-29T20:48:06.002Z,72.25
2017-09-29T20:50:33.145Z,72.26
2017-09-29T20:53:00.304Z,72.27
2017-09-29T20:55:27.455Z,72.30
2017-09-29T20:57:54.627Z,72.30
2017-09-29T21:00:21.766Z,72.30
2017-09-29T21:02:48.915Z,72.30
2017-09-29T21:05:16.053Z,72.30
2017-09-29T21:07:43.194Z,72.32
2017-09-29T21:10:10.337Z,72.32
2017-09-29T21:12:37.484Z,72.33
2017-09-29T21:15:04.619Z,72.33
2017-09-29T21:17:32.522Z,72.47
2017-09-29T21:19:59.844Z,72.05
2017-09-29T21:22:27.746Z,71.49
2017-09-29T21:24:54.884Z,70.49
2017-09-29T21:27:22.040Z,69.96
2017-09-29T21:29:49.196Z,69.29
2017-09-29T21:32:16.543Z,68.63
2017-09-29T21:34:43.695Z,68.33
2017-09-29T21:37:10.856Z,67.93
2017-09-29T21:39:38.008Z,67.75
2017-09-29T21:42:05.142Z,67.38
2017-09-29T21:44:32.277Z,67.16
2017-09-29T21:46:59.422Z,68.06
2017-09-29T21:49:27.320Z,68.55
2017-09-29T21:51:54.480Z,68.76
2017-09-29T21:54:21.648Z,69.04
2017-09-29T21:56:48.790Z,69.10
2017-09-29T21:59:15.945Z,69.10
2017-09-29T22:01:43.082Z,69.31
2017-09-29T22:04:10.235Z,69.64
2017-09-29T22:06:37.400Z,69.77
2017-09-29T22:09:04.555Z,69.88
2017-09-29T22:11:31.716Z,69.75
2017-09-29T22:13:58.875Z,70.02
2017-09-29T22:16:26.009Z,69.90
2017-09-29T22:18:53.145Z,69.91
2017-09-29T22:21:20.286Z,70.03
2017-09-29T22:23:47.433Z,70.13
2017-09-29T22:26:14.566Z,70.25
2017-09-29T22:28:41.891Z,70.42
2017-09-29T22:31:09.794Z,70.46
2017-09-29T22:33:36.952Z,70.53
2017-09-29T22:36:04.101Z,70.59
2017-09-29T22:38:31.237Z,70.72
2017-09-29T22:40:58.388Z,70.76
2017-09-29T22:43:25.539Z,70.86
2017-09-29T22:45:52.674Z,70.91
2017-09-29T22:48:19.817Z,70.97
2017-09-29T22:50:46.973Z,71.05
2017-09-29T22:53:14.128Z,71.10
2017-09-29T22:55:41.282Z,71.14
2017-09-29T22:58:08.425Z,71.20
2017-09-29T23:00:35.584Z,71.26
2017-09-29T23:03:02.739Z,71.27
2017-09-29T23:05:29.893Z,71.32
2017-09-29T23:07:57.049Z,71.39
2017-09-29T23:10:24.236Z,71.43
2017-09-29T23:12:51.394Z,71.46
2017-09-29T23:15:18.541Z,71.50
2017-09-29T23:17:45.681Z,71.52
2017-09-29T23:20:12.818Z,71.59
2017-09-29T23:22:39.980Z,71.55
2017-09-29T23:25:07.148Z,71.58
2017-09-29T23:27:34.311Z,71.59
2017-09-29T23:30:01.468Z,71.61
2017-09-29T23:32:28.608Z,71.62
2017-09-29T23:34:55.772Z,71.64
2017-09-29T23:37:22.928Z,71.67
2017-09-29T23:39:50.074Z,71.70
2017-09-29T23:42:17.247Z,71.72
2017-09-29T23:44:44.429Z,71.73
2017-09-29T23:47:11.582Z,71.74
2017-09-29T23:49:39.095Z,71.75
2017-09-29T23:52:06.237Z,71.75
2017-09-29T23:54:33.399Z,71.78
2017-09-29T23:57:00.559Z,71.79
2017-09-29T23:59:27.723Z,71.81
